Terminal Aerodrome Forecast
Issued by NWS Birmingham, AL

Home | Current Version | Previous Version | Text Only | Print | Product List | Glossary On
Versions: 1 2 3 4 5 6 7 8 9 10 11 12 13 14 15 16
000
FTUS44 KBMX 181249 AAA
TAFBHM
TAF AMD
KBHM 181249Z 1813/1912 19008KT P6SM BKN015
     FM181600 20013G20KT P6SM BKN025
     FM181900 21014G24KT P6SM BKN035
     FM190000 25018G28KT 4SM -RA BR OVC025
     FM190300 31018G28KT P6SM BKN035=

USA.gov is the U.S. government's official web portal to all federal, state and local government web resources and services.